createdAt,value
2019-05-10T00:02:23.908Z,99.90
2019-05-10T00:05:31.931Z,99.90
2019-05-10T00:08:39.896Z,99.90
2019-05-10T00:12:01.721Z,99.90
2019-05-10T00:15:04.353Z,99.90
2019-05-10T00:18:06.591Z,99.90
2019-05-10T00:21:08.839Z,99.90
2019-05-10T00:24:11.053Z,99.90
2019-05-10T00:27:13.322Z,99.90
2019-05-10T00:30:15.592Z,99.90
2019-05-10T00:33:17.887Z,99.90
2019-05-10T00:36:20.131Z,99.90
2019-05-10T00:39:22.349Z,99.90
2019-05-10T00:42:24.563Z,99.90
2019-05-10T00:45:26.804Z,99.90
2019-05-10T00:48:29.056Z,99.90
2019-05-10T00:51:31.288Z,99.90
2019-05-10T00:54:33.595Z,99.90
2019-05-10T00:57:35.812Z,99.90
2019-05-10T01:00:38.077Z,99.90
2019-05-10T01:03:40.320Z,99.90
2019-05-10T01:06:42.591Z,99.90
2019-05-10T01:09:44.798Z,99.90
2019-05-10T01:12:47.039Z,99.90
2019-05-10T01:15:49.513Z,99.90
2019-05-10T01:18:51.793Z,99.90
2019-05-10T01:21:53.999Z,99.90
2019-05-10T01:24:56.236Z,99.90
2019-05-10T01:27:58.492Z,99.90
2019-05-10T01:31:00.845Z,99.90
2019-05-10T01:34:03.100Z,99.90
2019-05-10T01:37:05.309Z,99.90
2019-05-10T01:40:07.627Z,99.90
2019-05-10T01:43:09.922Z,99.90
2019-05-10T01:46:12.148Z,99.90
2019-05-10T01:49:14.374Z,99.90
2019-05-10T01:52:16.616Z,99.90
2019-05-10T01:55:18.831Z,99.90
2019-05-10T01:58:21.047Z,99.90
2019-05-10T02:01:23.302Z,99.90
2019-05-10T02:04:25.564Z,99.90
2019-05-10T02:07:27.821Z,99.90
2019-05-10T02:10:30.085Z,99.90
2019-05-10T02:13:32.282Z,99.90
2019-05-10T02:16:34.508Z,99.90
2019-05-10T02:19:36.745Z,99.90
2019-05-10T02:22:38.966Z,99.90
2019-05-10T02:25:41.225Z,99.90
2019-05-10T02:28:43.543Z,99.90
2019-05-10T02:31:45.818Z,99.90
2019-05-10T02:34:48.100Z,99.90
2019-05-10T02:37:50.348Z,99.90
2019-05-10T02:40:52.628Z,99.90
2019-05-10T02:43:54.839Z,99.90
2019-05-10T02:46:57.067Z,99.90
2019-05-10T02:49:59.549Z,99.90
2019-05-10T02:53:01.609Z,99.90
2019-05-10T02:56:03.933Z,99.90
2019-05-10T02:59:06.375Z,99.90
2019-05-10T03:02:08.648Z,99.90
2019-05-10T03:05:10.900Z,99.90
2019-05-10T03:08:13.720Z,99.90
2019-05-10T03:11:15.973Z,99.90
2019-05-10T03:14:18.393Z,99.90
2019-05-10T03:17:20.657Z,99.90
2019-05-10T03:20:22.969Z,99.90
2019-05-10T03:23:25.223Z,99.90
2019-05-10T03:26:27.462Z,99.90
2019-05-10T03:29:29.710Z,99.90
2019-05-10T03:32:31.970Z,99.90
2019-05-10T03:35:34.219Z,99.90
2019-05-10T03:38:36.567Z,99.90
2019-05-10T03:41:38.806Z,99.90
2019-05-10T03:44:41.032Z,99.90
2019-05-10T03:47:43.289Z,99.90
2019-05-10T03:50:45.556Z,99.90
2019-05-10T03:53:47.807Z,99.90
2019-05-10T03:57:10.333Z,99.90
2019-05-10T03:59:52.290Z,99.90
2019-05-10T04:02:54.565Z,99.90
2019-05-10T04:05:56.821Z,99.90
2019-05-10T04:08:59.054Z,99.90
2019-05-10T04:12:01.344Z,99.90
2019-05-10T04:15:04.930Z,99.90
2019-05-10T04:18:07.228Z,99.90
2019-05-10T04:21:09.464Z,99.90
2019-05-10T04:24:11.660Z,99.90
2019-05-10T04:27:30.604Z,99.90
2019-05-10T04:30:16.331Z,99.90
2019-05-10T04:33:18.598Z,99.90
2019-05-10T04:36:20.892Z,99.90
2019-05-10T04:39:23.232Z,99.90
2019-05-10T04:42:25.477Z,99.90
2019-05-10T04:45:27.778Z,99.90
2019-05-10T04:48:30.063Z,99.90
2019-05-10T04:51:32.287Z,99.90
2019-05-10T04:54:34.581Z,99.90
2019-05-10T04:57:49.736Z,99.90
2019-05-10T05:00:39.097Z,99.90
2019-05-10T05:03:41.340Z,99.90
2019-05-10T05:06:43.580Z,99.90
2019-05-10T05:09:45.845Z,99.90
2019-05-10T05:12:48.089Z,99.90
2019-05-10T05:15:50.458Z,99.90
2019-05-10T05:18:52.683Z,99.90
2019-05-10T05:21:54.905Z,99.90
2019-05-10T05:25:01.057Z,99.90
2019-05-10T05:28:08.066Z,99.90
2019-05-10T05:31:01.853Z,99.90
2019-05-10T05:34:04.911Z,99.90
2019-05-10T05:37:06.401Z,99.90
2019-05-10T05:40:08.711Z,99.90
2019-05-10T05:43:11.011Z,99.90
2019-05-10T05:46:14.660Z,99.90
2019-05-10T05:49:15.617Z,99.90
2019-05-10T05:52:17.930Z,99.90
2019-05-10T05:55:22.985Z,99.90
2019-05-10T05:58:27.001Z,99.90
2019-05-10T06:01:28.987Z,99.90
2019-05-10T06:04:26.984Z,99.90
2019-05-10T06:07:31.130Z,99.90
2019-05-10T06:10:31.583Z,99.90
2019-05-10T06:13:33.811Z,99.90
2019-05-10T06:16:36.043Z,99.90
2019-05-10T06:19:38.273Z,99.90
2019-05-10T06:22:45.579Z,99.90
2019-05-10T06:25:43.108Z,99.90
2019-05-10T06:28:58.604Z,99.90
2019-05-10T06:31:47.331Z,99.90
2019-05-10T06:34:49.575Z,99.90
2019-05-10T06:37:51.867Z,99.90
2019-05-10T06:40:54.138Z,99.80
2019-05-10T06:43:56.351Z,99.90
2019-05-10T06:47:02.263Z,99.70
2019-05-10T06:50:00.899Z,99.40
2019-05-10T06:53:07.947Z,97.80
2019-05-10T06:56:05.457Z,97.60
2019-05-10T06:59:13.301Z,98.10
2019-05-10T07:02:10.081Z,97.70
2019-05-10T07:05:12.412Z,98.10
2019-05-10T07:08:20.177Z,97.20
2019-05-10T07:11:16.936Z,97.20
2019-05-10T07:14:25.397Z,97.20
2019-05-10T07:17:21.486Z,97.50
2019-05-10T07:20:29.307Z,97.80
2019-05-10T07:23:29.741Z,98.60
2019-05-10T07:26:28.468Z,99.90
2019-05-10T07:29:41.834Z,99.90
2019-05-10T07:32:33.023Z,99.90
2019-05-10T07:35:36.821Z,99.90
2019-05-10T07:38:37.619Z,99.90
2019-05-10T07:41:39.921Z,99.90
2019-05-10T07:44:46.717Z,99.90
2019-05-10T07:47:44.533Z,99.90
2019-05-10T07:50:49.595Z,99.90
2019-05-10T07:53:49.320Z,99.90
2019-05-10T07:56:51.622Z,99.90
2019-05-10T07:59:57.476Z,99.90
2019-05-10T08:03:07.507Z,99.60
2019-05-10T08:06:01.803Z,99.90
2019-05-10T08:09:04.185Z,99.90
2019-05-10T08:12:05.133Z,99.90
2019-05-10T08:15:08.424Z,99.90
2019-05-10T08:18:09.816Z,99.90
2019-05-10T08:21:21.480Z,99.90
2019-05-10T08:24:16.139Z,99.90
2019-05-10T08:27:15.236Z,99.90
2019-05-10T08:30:28.972Z,99.90
2019-05-10T08:33:27.745Z,99.90
2019-05-10T08:36:32.034Z,99.90
2019-05-10T08:39:43.940Z,99.90
2019-05-10T08:42:44.400Z,99.90
2019-05-10T08:45:38.696Z,99.90
2019-05-10T08:48:46.183Z,99.90
2019-05-10T08:51:47.774Z,99.90
2019-05-10T08:54:44.457Z,99.90
2019-05-10T08:57:49.209Z,99.90
2019-05-10T09:01:04.781Z,99.90
2019-05-10T09:03:59.026Z,99.40
2019-05-10T09:06:59.630Z,97.40
2019-05-10T09:09:57.133Z,95.10
2019-05-10T09:12:59.449Z,94.80
2019-05-10T09:16:02.385Z,93.50
2019-05-10T09:19:04.382Z,92.20
2019-05-10T09:22:06.667Z,91.00
2019-05-10T09:25:09.008Z,90.50
2019-05-10T09:28:16.794Z,90.40
2019-05-10T09:31:21.832Z,86.30
2019-05-10T09:34:16.702Z,87.90
2019-05-10T09:37:18.963Z,87.20
2019-05-10T09:40:21.984Z,87.30
2019-05-10T09:43:24.332Z,85.80
2019-05-10T09:46:25.861Z,85.00
2019-05-10T09:49:28.180Z,84.10
2019-05-10T09:52:30.462Z,83.40
2019-05-10T09:55:32.763Z,82.80
2019-05-10T09:58:35.031Z,85.20
2019-05-10T10:01:37.310Z,89.40
2019-05-10T10:04:39.562Z,92.30
2019-05-10T10:07:41.832Z,99.90
2019-05-10T10:10:44.138Z,99.90
2019-05-10T10:13:51.973Z,99.90
2019-05-10T10:16:57.885Z,99.90
2019-05-10T10:19:51.187Z,99.90
2019-05-10T10:22:54.641Z,99.90
2019-05-10T10:25:57.797Z,99.90
2019-05-10T10:29:00.102Z,99.90
2019-05-10T10:32:00.320Z,99.90
2019-05-10T10:35:02.601Z,99.90
2019-05-10T10:38:08.033Z,99.90
2019-05-10T10:41:09.908Z,99.90
2019-05-10T10:44:12.191Z,99.90
2019-05-10T10:47:14.496Z,99.90
2019-05-10T10:50:17.252Z,99.90
2019-05-10T10:53:19.156Z,99.90
2019-05-10T10:56:21.433Z,99.90
2019-05-10T10:59:24.057Z,99.90
2019-05-10T11:02:32.758Z,99.90
2019-05-10T11:05:28.615Z,99.90
2019-05-10T11:08:33.081Z,99.90
2019-05-10T11:11:38.928Z,99.90
2019-05-10T11:14:40.105Z,99.90
2019-05-10T11:17:37.719Z,99.90
2019-05-10T11:20:42.050Z,99.90
2019-05-10T11:23:42.289Z,99.90
2019-05-10T11:26:45.018Z,99.90
2019-05-10T11:29:46.755Z,99.90
2019-05-10T11:32:49.054Z,99.90
2019-05-10T11:35:51.513Z,99.90
2019-05-10T11:38:58.578Z,99.90
2019-05-10T11:42:02.377Z,99.90
2019-05-10T11:45:00.619Z,99.90
2019-05-10T11:48:02.277Z,99.90
2019-05-10T11:51:05.808Z,99.90
2019-05-10T11:54:05.026Z,99.90
2019-05-10T11:57:12.814Z,99.90
2019-05-10T12:00:14.247Z,99.90
2019-05-10T12:03:18.193Z,99.90
2019-05-10T12:06:14.239Z,97.20
2019-05-10T12:09:16.520Z,94.80
2019-05-10T12:12:29.623Z,95.10
2019-05-10T12:18:26.778Z,94.40
2019-05-10T12:21:26.247Z,92.40
2019-05-10T12:24:45.240Z,92.10
2019-05-10T12:26:31.278Z,93.90
2019-05-10T12:27:44.390Z,91.30
2019-05-10T12:30:34.889Z,92.50
2019-05-10T12:33:35.815Z,92.00
2019-05-10T12:36:38.152Z,92.10
2019-05-10T12:39:40.444Z,91.00
2019-05-10T12:42:42.755Z,90.20
2019-05-10T12:45:45.035Z,88.50
2019-05-10T12:48:47.293Z,86.40
2019-05-10T12:51:51.379Z,85.30
2019-05-10T12:54:52.075Z,86.50
2019-05-10T12:57:54.385Z,86.00
2019-05-10T13:00:58.991Z,86.50
2019-05-10T13:04:01.834Z,88.90
2019-05-10T13:07:01.279Z,87.20
2019-05-10T13:10:07.617Z,87.30
2019-05-10T13:13:06.221Z,83.90
2019-05-10T13:16:09.491Z,81.60
2019-05-10T13:19:14.074Z,79.10
2019-05-10T13:22:13.393Z,73.40
2019-05-10T13:25:15.647Z,72.60
2019-05-10T13:28:17.924Z,72.90
2019-05-10T13:31:20.173Z,74.10
2019-05-10T13:34:24.393Z,74.80
2019-05-10T13:37:25.366Z,76.30
2019-05-10T13:40:27.405Z,75.00
2019-05-10T13:43:29.908Z,75.40
2019-05-10T13:46:32.260Z,76.60
2019-05-10T13:49:34.729Z,77.10
2019-05-10T13:52:38.908Z,77.90
2019-05-10T13:55:39.705Z,77.40
2019-05-10T13:58:42.110Z,79.10
2019-05-10T14:01:49.549Z,79.70
2019-05-10T14:04:47.824Z,79.90
2019-05-10T14:07:53.390Z,80.20
2019-05-10T14:11:01.643Z,80.00
2019-05-10T14:13:59.372Z,78.40
2019-05-10T14:17:01.654Z,78.70
2019-05-10T14:20:04.733Z,78.70
2019-05-10T14:23:07.098Z,79.20
2019-05-10T14:26:15.713Z,79.10
2019-05-10T14:29:11.706Z,78.90
2019-05-10T14:32:14.027Z,78.40
2019-05-10T14:35:21.995Z,78.30
2019-05-10T14:38:18.612Z,78.40
2019-05-10T14:41:20.847Z,78.50
2019-05-10T14:44:23.130Z,78.10
2019-05-10T14:47:25.394Z,78.00
2019-05-10T14:50:28.470Z,77.70
2019-05-10T14:53:29.952Z,76.90
2019-05-10T14:56:32.232Z,76.00
2019-05-10T14:59:34.534Z,75.60
2019-05-10T15:02:36.787Z,75.90
2019-05-10T15:05:39.075Z,75.90
2019-05-10T15:08:41.321Z,75.70
2019-05-10T15:11:43.572Z,75.40
2019-05-10T15:14:45.839Z,75.00
2019-05-10T15:17:48.084Z,75.50
2019-05-10T15:20:50.402Z,75.60
2019-05-10T15:23:55.389Z,75.80
2019-05-10T15:26:54.950Z,75.20
2019-05-10T15:29:58.823Z,75.30
2019-05-10T15:32:59.512Z,76.00
2019-05-10T15:36:01.836Z,76.10
2019-05-10T15:39:05.953Z,76.00
2019-05-10T15:42:08.215Z,76.10
2019-05-10T15:45:12.450Z,75.70
2019-05-10T15:48:12.965Z,76.30
2019-05-10T15:51:16.957Z,76.20
2019-05-10T15:54:17.561Z,76.40
2019-05-10T15:57:21.687Z,82.50
2019-05-10T16:00:25.131Z,85.60
2019-05-10T16:03:24.489Z,88.70
2019-05-10T16:06:26.789Z,90.50
2019-05-10T16:09:29.061Z,94.70
2019-05-10T16:12:31.356Z,93.80
2019-05-10T16:15:33.648Z,93.60
2019-05-10T16:18:39.932Z,91.90
2019-05-10T16:21:38.188Z,91.50
2019-05-10T16:24:40.452Z,92.10
2019-05-10T16:27:44.914Z,92.40
2019-05-10T16:30:47.013Z,92.80
2019-05-10T16:33:48.132Z,91.30
2019-05-10T16:36:49.447Z,89.60
2019-05-10T16:39:51.667Z,84.10
2019-05-10T16:42:53.935Z,83.50
2019-05-10T16:45:56.263Z,83.70
2019-05-10T16:48:58.464Z,83.00
2019-05-10T16:52:00.723Z,84.10
2019-05-10T16:55:04.110Z,82.70
2019-05-10T16:58:09.548Z,82.60
2019-05-10T17:01:07.856Z,81.70
2019-05-10T17:04:10.096Z,83.20
2019-05-10T17:07:12.799Z,81.70
2019-05-10T17:10:14.603Z,81.20
2019-05-10T17:13:16.942Z,81.50
2019-05-10T17:16:19.213Z,81.20
2019-05-10T17:19:21.452Z,81.30
2019-05-10T17:22:23.683Z,82.00
2019-05-10T17:25:25.953Z,82.40
2019-05-10T17:28:29.694Z,81.10
2019-05-10T17:31:30.427Z,81.60
2019-05-10T17:34:32.677Z,81.50
2019-05-10T17:37:35.802Z,82.10
2019-05-10T17:40:37.255Z,82.10
2019-05-10T17:43:39.520Z,82.40
2019-05-10T17:46:41.803Z,83.00
2019-05-10T17:49:44.033Z,83.10
2019-05-10T17:52:46.393Z,83.40
2019-05-10T17:55:55.778Z,83.60
2019-05-10T17:58:50.899Z,84.30
2019-05-10T18:01:53.128Z,84.90
2019-05-10T18:04:59.626Z,85.10
2019-05-10T18:07:57.726Z,85.30
2019-05-10T18:11:03.953Z,85.60
2019-05-10T18:14:02.263Z,88.90
2019-05-10T18:17:07.109Z,87.30
2019-05-10T18:20:06.812Z,87.30
2019-05-10T18:23:09.065Z,86.50
2019-05-10T18:26:11.296Z,86.80
2019-05-10T18:29:13.519Z,87.10
2019-05-10T18:32:15.757Z,87.80
2019-05-10T18:35:18.022Z,87.90
2019-05-10T18:38:20.254Z,88.60
2019-05-10T18:41:22.497Z,89.40
2019-05-10T18:44:24.729Z,90.40
2019-05-10T18:47:26.962Z,90.90
2019-05-10T18:50:29.184Z,91.20
2019-05-10T18:53:31.504Z,91.10
2019-05-10T18:56:33.727Z,91.10
2019-05-10T18:59:39.905Z,91.70
2019-05-10T19:02:39.916Z,91.90
2019-05-10T19:05:42.133Z,92.50
2019-05-10T19:08:44.446Z,92.10
2019-05-10T19:11:46.670Z,92.00
2019-05-10T19:14:48.920Z,92.40
2019-05-10T19:17:51.159Z,94.70
2019-05-10T19:20:55.185Z,95.80
2019-05-10T19:23:55.577Z,94.60
2019-05-10T19:27:01.388Z,95.80
2019-05-10T19:30:00.030Z,95.00
2019-05-10T19:33:02.259Z,95.60
2019-05-10T19:36:12.175Z,96.60
2019-05-10T19:39:06.912Z,96.20
2019-05-10T19:42:09.198Z,96.50
2019-05-10T19:45:12.813Z,97.00
2019-05-10T19:48:13.798Z,97.90
2019-05-10T19:51:16.087Z,98.60
2019-05-10T19:54:21.070Z,99.70
2019-05-10T19:57:20.750Z,99.90
2019-05-10T20:00:23.076Z,99.90
2019-05-10T20:03:25.314Z,99.90
2019-05-10T20:06:27.556Z,99.90
2019-05-10T20:09:29.760Z,99.90
2019-05-10T20:12:32.012Z,99.90
2019-05-10T20:15:34.224Z,99.90
2019-05-10T20:18:36.447Z,99.90
2019-05-10T20:21:38.681Z,99.90
2019-05-10T20:24:40.916Z,99.90
2019-05-10T20:27:43.187Z,99.90
2019-05-10T20:30:45.411Z,99.90
2019-05-10T20:33:47.674Z,99.90
2019-05-10T20:36:49.929Z,99.90
2019-05-10T20:39:52.181Z,99.90
2019-05-10T20:42:54.432Z,99.90
2019-05-10T20:45:56.629Z,99.90
2019-05-10T20:48:58.904Z,99.90
2019-05-10T20:52:01.215Z,99.90
2019-05-10T20:55:03.565Z,99.90
2019-05-10T20:58:05.809Z,99.90
2019-05-10T21:01:08.023Z,99.90
2019-05-10T21:04:10.253Z,99.90
2019-05-10T21:07:12.681Z,99.90
2019-05-10T21:10:14.952Z,99.90
2019-05-10T21:13:17.195Z,99.90
2019-05-10T21:16:19.431Z,99.90
2019-05-10T21:19:21.656Z,99.90
2019-05-10T21:22:23.909Z,99.90
2019-05-10T21:25:26.194Z,99.90
2019-05-10T21:28:28.424Z,99.90
2019-05-10T21:31:30.673Z,99.90
2019-05-10T21:34:32.991Z,99.90
2019-05-10T21:37:35.181Z,99.90
2019-05-10T21:40:37.454Z,99.90
2019-05-10T21:43:39.679Z,99.90
2019-05-10T21:46:42.004Z,99.90
2019-05-10T21:49:44.236Z,99.90
2019-05-10T21:52:46.528Z,99.90
2019-05-10T21:55:48.773Z,99.90
2019-05-10T21:58:51.004Z,99.90
2019-05-10T22:01:53.277Z,99.90
2019-05-10T22:04:55.521Z,99.90
2019-05-10T22:07:57.845Z,99.90
2019-05-10T22:11:00.131Z,99.90
2019-05-10T22:14:02.488Z,99.90
2019-05-10T22:17:04.787Z,99.90
2019-05-10T22:20:07.118Z,99.90
2019-05-10T22:23:09.435Z,99.90
2019-05-10T22:26:11.758Z,99.90
2019-05-10T22:29:14.151Z,99.90
2019-05-10T22:32:16.452Z,99.90
2019-05-10T22:35:18.748Z,99.90
2019-05-10T22:38:21.085Z,99.90
2019-05-10T22:41:23.394Z,99.90
2019-05-10T22:44:25.678Z,99.90
2019-05-10T22:47:28.003Z,99.90
2019-05-10T22:50:30.380Z,99.90
2019-05-10T22:53:32.674Z,99.90
2019-05-10T22:56:34.956Z,99.90
2019-05-10T22:59:37.287Z,99.90
2019-05-10T23:02:39.579Z,99.90
2019-05-10T23:05:41.872Z,99.90
2019-05-10T23:08:44.176Z,99.90
2019-05-10T23:11:46.484Z,99.90
2019-05-10T23:14:48.755Z,99.90
2019-05-10T23:17:51.110Z,99.90
2019-05-10T23:20:53.433Z,99.90
2019-05-10T23:23:55.743Z,99.90
2019-05-10T23:26:58.055Z,99.90
2019-05-10T23:30:00.371Z,99.90
2019-05-10T23:33:02.660Z,99.90
2019-05-10T23:36:04.955Z,99.90
2019-05-10T23:39:07.365Z,99.90
2019-05-10T23:42:09.670Z,99.90
2019-05-10T23:45:12.007Z,99.90
2019-05-10T23:48:14.327Z,99.90
2019-05-10T23:51:16.623Z,99.90
2019-05-10T23:54:19.024Z,99.90
2019-05-10T23:57:21.339Z,99.90
